Time;durP1;ratioP1;P1;durP2;ratioP2;P2;SDS_P1;SDS_P2;PMS_P1;PMS_P2;Temp;Humidity;BMP_temperature;BMP_pressure;BME280_temperature;BME280_humidity;BME280_pressure;Samples;Min_cycle;Max_cycle;Signal;HPM_P1;HPM_P2
2021/04/11 00:00:30;;;;;;;;;;;11.00;99.90;;;;;;5032929;28;19942;-72
2021/04/11 00:02:56;;;;;;;;;;;10.90;99.90;;;;;;5031466;28;19952;-73
2021/04/11 00:05:24;;;;;;;;;;;10.90;99.90;;;;;;5015136;28;20369;-72
2021/04/11 00:07:50;;;;;;;;;;;10.90;99.90;;;;;;5032612;28;20007;-73
2021/04/11 00:10:20;;;;;;;;;;;10.80;99.90;;;;;;5031365;28;19952;-72
2021/04/11 00:12:45;;;;;;;;;;;10.80;99.90;;;;;;5032708;28;19913;-73
2021/04/11 00:15:12;;;;;;;;;;;10.70;99.90;;;;;;5048202;28;19920;-73
2021/04/11 00:17:38;;;;;;;;;;;10.70;99.90;;;;;;5032761;28;19920;-73
2021/04/11 00:20:06;;;;;;;;;;;10.60;99.90;;;;;;5032645;28;19913;-73
2021/04/11 00:22:31;;;;;;;;;;;10.50;99.90;;;;;;5031188;28;19921;-73
2021/04/11 00:24:57;;;;;;;;;;;10.40;99.90;;;;;;5031312;28;19966;-74
2021/04/11 00:27:22;;;;;;;;;;;10.40;99.90;;;;;;5032726;28;19932;-73
2021/04/11 00:29:48;;;;;;;;;;;10.20;99.90;;;;;;5032815;28;19999;-73
2021/04/11 00:32:14;;;;;;;;;;;10.20;99.90;;;;;;5032114;28;19971;-73
2021/04/11 00:34:39;;;;;;;;;;;10.20;99.90;;;;;;5034775;28;19913;-74
2021/04/11 00:37:06;;;;;;;;;;;10.20;99.90;;;;;;5036615;28;19909;-73
2021/04/11 00:39:31;;;;;;;;;;;10.10;99.90;;;;;;5036771;28;19924;-73
2021/04/11 00:42:08;;;;;;;;;;;10.00;99.90;;;;;;5036383;28;19913;-72
2021/04/11 00:44:34;;;;;;;;;;;10.00;99.90;;;;;;5036641;28;19920;-73
2021/04/11 00:47:00;;;;;;;;;;;10.00;99.90;;;;;;5034940;28;19917;-74
2021/04/11 00:49:30;;;;;;;;;;;10.00;99.90;;;;;;5035283;28;19919;-73
2021/04/11 00:51:56;;;;;;;;;;;9.90;99.90;;;;;;5034993;28;19921;-73
2021/04/11 00:54:22;;;;;;;;;;;9.90;99.90;;;;;;5036426;28;19956;-72
2021/04/11 00:56:48;;;;;;;;;;;9.90;99.90;;;;;;5018467;28;20026;-73
2021/04/11 00:59:15;;;;;;;;;;;10.00;99.90;;;;;;5036194;28;20019;-73
2021/04/11 01:01:41;;;;;;;;;;;10.00;99.90;;;;;;5035012;28;19956;-73
2021/04/11 01:04:11;;;;;;;;;;;10.00;99.90;;;;;;5036176;28;19936;-74
2021/04/11 01:06:41;;;;;;;;;;;10.00;99.90;;;;;;5034776;28;19921;-74
2021/04/11 01:09:35;;;;;;;;;;;10.00;99.90;;;;;;5034718;28;19913;-74
2021/04/11 01:12:03;;;;;;;;;;;9.90;99.90;;;;;;5035826;28;19917;-74
2021/04/11 01:14:30;;;;;;;;;;;9.90;99.90;;;;;;5035994;28;19912;-74
2021/04/11 01:16:56;;;;;;;;;;;9.90;99.90;;;;;;5035764;28;20008;-74
2021/04/11 01:19:31;;;;;;;;;;;9.90;99.90;;;;;;5035700;28;19917;-74
2021/04/11 01:22:21;;;;;;;;;;;9.90;99.90;;;;;;5041002;28;19920;-74
2021/04/11 01:24:48;;;;;;;;;;;9.90;99.90;;;;;;5035847;28;19913;-74
2021/04/11 01:27:17;;;;;;;;;;;10.00;99.90;;;;;;5034473;28;19920;-74
2021/04/11 01:29:43;;;;;;;;;;;10.10;99.90;;;;;;5034555;28;19913;-73
2021/04/11 01:32:11;;;;;;;;;;;10.10;99.90;;;;;;5017673;28;19913;-74
2021/04/11 01:34:38;;;;;;;;;;;10.10;99.90;;;;;;5034567;28;19913;-74
2021/04/11 01:37:05;;;;;;;;;;;10.20;99.90;;;;;;5034122;28;20294;-73
2021/04/11 01:39:36;;;;;;;;;;;10.20;99.90;;;;;;5035490;28;20007;-73
2021/04/11 01:42:03;;;;;;;;;;;10.20;99.90;;;;;;5033866;28;20000;-73
2021/04/11 01:44:31;;;;;;;;;;;10.10;99.90;;;;;;5035424;28;20353;-73
2021/04/11 01:46:57;;;;;;;;;;;10.10;99.90;;;;;;5033556;28;19974;-73
2021/04/11 01:49:24;;;;;;;;;;;10.00;99.90;;;;;;5035221;28;19916;-74
2021/04/11 01:51:53;;;;;;;;;;;10.10;99.90;;;;;;5034117;28;19919;-73
2021/04/11 01:54:24;;;;;;;;;;;10.10;99.90;;;;;;5033928;28;19943;-74
2021/04/11 01:56:50;;;;;;;;;;;10.10;99.90;;;;;;5034089;28;19920;-74
2021/04/11 01:59:23;;;;;;;;;;;10.10;99.90;;;;;;5033706;28;19913;-74
2021/04/11 02:01:49;;;;;;;;;;;10.10;99.90;;;;;;5034578;28;19913;-74
2021/04/11 02:04:15;;;;;;;;;;;10.20;99.90;;;;;;5033715;28;20009;-74
2021/04/11 02:06:47;;;;;;;;;;;10.30;99.90;;;;;;5033931;28;19999;-74
2021/04/11 02:09:20;;;;;;;;;;;10.40;99.90;;;;;;5034868;28;19913;-73
2021/04/11 02:11:46;;;;;;;;;;;10.40;99.90;;;;;;5033438;28;20366;-73
2021/04/11 02:14:12;;;;;;;;;;;10.40;99.90;;;;;;5033289;28;19924;-74
2021/04/11 02:16:38;;;;;;;;;;;10.40;99.90;;;;;;5033762;28;19913;-73
2021/04/11 02:19:22;;;;;;;;;;;10.40;99.90;;;;;;5033470;28;19920;-74
2021/04/11 02:22:12;;;;;;;;;;;10.40;99.90;;;;;;5033553;28;20004;-73
2021/04/11 02:24:40;;;;;;;;;;;10.40;99.90;;;;;;5028870;28;19913;-73
2021/04/11 02:27:07;;;;;;;;;;;10.30;99.90;;;;;;5016974;28;20290;-73
2021/04/11 02:29:33;;;;;;;;;;;10.10;99.90;;;;;;5034719;28;20409;-72
2021/04/11 02:31:59;;;;;;;;;;;10.10;99.90;;;;;;5033039;28;20000;-72
2021/04/11 02:34:27;;;;;;;;;;;10.00;99.90;;;;;;5049599;28;19959;-72
2021/04/11 02:36:57;;;;;;;;;;;10.00;99.90;;;;;;5033379;28;19948;-73
2021/04/11 02:39:25;;;;;;;;;;;9.90;99.90;;;;;;5033420;28;19913;-72
2021/04/11 02:41:53;;;;;;;;;;;9.90;99.90;;;;;;5000475;28;19967;-73
2021/04/11 02:44:19;;;;;;;;;;;9.90;99.90;;;;;;5032651;28;19920;-72
2021/04/11 02:46:45;;;;;;;;;;;9.90;99.90;;;;;;5033165;28;19909;-74
2021/04/11 02:49:13;;;;;;;;;;;9.90;99.90;;;;;;5032899;28;19989;-73
2021/04/11 02:51:40;;;;;;;;;;;9.90;99.90;;;;;;5032544;28;19913;-73
2021/04/11 02:54:08;;;;;;;;;;;9.90;99.90;;;;;;5032758;28;19913;-73
2021/04/11 02:56:37;;;;;;;;;;;9.90;99.90;;;;;;5032957;28;19999;-74
2021/04/11 02:59:04;;;;;;;;;;;9.90;99.90;;;;;;5031787;28;19935;-73
2021/04/11 03:01:41;;;;;;;;;;;9.90;99.90;;;;;;5034333;28;20262;-73
2021/04/11 03:04:10;;;;;;;;;;;9.90;99.90;;;;;;5032482;28;20263;-74
2021/04/11 03:06:39;;;;;;;;;;;9.90;99.90;;;;;;5016430;28;19913;-74
2021/04/11 03:09:13;;;;;;;;;;;10.00;99.90;;;;;;5032519;28;19913;-73
2021/04/11 03:11:43;;;;;;;;;;;10.00;99.90;;;;;;5032462;28;19924;-74
2021/04/11 03:14:14;;;;;;;;;;;10.10;99.90;;;;;;5032402;28;19920;-73
2021/04/11 03:16:42;;;;;;;;;;;10.10;99.90;;;;;;5032518;28;19913;-73
2021/04/11 03:19:08;;;;;;;;;;;10.20;99.90;;;;;;5032231;28;19917;-73
2021/04/11 03:21:35;;;;;;;;;;;10.20;99.90;;;;;;5015812;28;19996;-74
2021/04/11 03:24:03;;;;;;;;;;;10.20;99.90;;;;;;5033365;28;19913;-76
2021/04/11 03:26:50;;;;;;;;;;;10.20;99.90;;;;;;5032391;28;19913;-74
2021/04/11 03:29:44;;;;;;;;;;;10.20;99.90;;;;;;5015809;28;19913;-72
2021/04/11 03:32:19;;;;;;;;;;;10.40;99.90;;;;;;5032030;28;19957;-74
2021/04/11 03:34:46;;;;;;;;;;;10.50;99.90;;;;;;5032394;28;19913;-74
2021/04/11 03:37:14;;;;;;;;;;;10.70;99.90;;;;;;5032204;28;20247;-74
2021/04/11 03:39:40;;;;;;;;;;;10.80;99.90;;;;;;5031979;28;20293;-74
2021/04/11 03:42:08;;;;;;;;;;;10.90;99.90;;;;;;5032180;28;19913;-74
2021/04/11 03:44:34;;;;;;;;;;;10.80;99.90;;;;;;5033277;28;20024;-73
2021/04/11 03:47:13;;;;;;;;;;;10.80;99.90;;;;;;5033272;28;19920;-74
2021/04/11 03:50:13;;;;;;;;;;;10.80;99.90;;;;;;5031983;28;19920;-74
2021/04/11 03:53:06;;;;;;;;;;;10.90;99.90;;;;;;5018433;28;20055;-74
2021/04/11 03:55:38;;;;;;;;;;;10.90;99.90;;;;;;5033143;28;19916;-72
2021/04/11 03:58:22;;;;;;;;;;;10.80;99.90;;;;;;5031700;28;19916;-73
2021/04/11 04:00:51;;;;;;;;;;;10.70;99.90;;;;;;5038340;28;19959;-73
2021/04/11 04:03:22;;;;;;;;;;;10.60;99.90;;;;;;5015405;28;20286;-74
2021/04/11 04:05:49;;;;;;;;;;;10.50;99.90;;;;;;5033044;28;19982;-73
2021/04/11 04:08:15;;;;;;;;;;;10.50;99.90;;;;;;5031540;28;19920;-74
2021/04/11 04:10:59;;;;;;;;;;;10.40;99.90;;;;;;5032293;28;20004;-74
2021/04/11 04:13:46;;;;;;;;;;;10.40;99.90;;;;;;5032830;28;19955;-73
2021/04/11 04:16:14;;;;;;;;;;;10.30;99.90;;;;;;5031114;28;19916;-73
2021/04/11 04:18:48;;;;;;;;;;;10.30;99.90;;;;;;5032554;28;19919;-73
2021/04/11 04:21:56;;;;;;;;;;;10.30;99.90;;;;;;5032702;28;19936;-73
2021/04/11 04:24:42;;;;;;;;;;;10.30;99.90;;;;;;5026976;28;19913;-73
2021/04/11 04:27:31;;;;;;;;;;;10.30;99.90;;;;;;5031695;28;19913;-73
2021/04/11 04:30:16;;;;;;;;;;;10.30;99.90;;;;;;5031610;28;20016;-74
2021/04/11 04:33:13;;;;;;;;;;;10.20;99.90;;;;;;5032479;28;20378;-73
2021/04/11 04:35:54;;;;;;;;;;;10.20;99.90;;;;;;5039175;28;20362;-73
2021/04/11 04:38:29;;;;;;;;;;;10.20;99.90;;;;;;5032757;28;19917;-72
2021/04/11 04:40:57;;;;;;;;;;;10.10;99.90;;;;;;5032576;28;19959;-73
2021/04/11 04:43:23;;;;;;;;;;;10.10;99.90;;;;;;5031292;28;19913;-73
2021/04/11 04:46:07;;;;;;;;;;;10.10;99.90;;;;;;5032602;28;20034;-73
2021/04/11 04:48:40;;;;;;;;;;;10.20;99.90;;;;;;5032413;28;20000;-73
2021/04/11 04:51:15;;;;;;;;;;;10.10;99.90;;;;;;5032587;28;19917;-73
2021/04/11 04:53:52;;;;;;;;;;;10.20;99.90;;;;;;5031577;28;19920;-73
2021/04/11 04:56:26;;;;;;;;;;;10.20;99.90;;;;;;5031153;28;19959;-74
2021/04/11 04:59:04;;;;;;;;;;;10.30;99.90;;;;;;5015128;28;19917;-73
2021/04/11 05:01:38;;;;;;;;;;;10.30;99.90;;;;;;5031167;28;20001;-72
2021/04/11 05:04:14;;;;;;;;;;;10.30;99.90;;;;;;5015048;28;19917;-72
2021/04/11 05:06:42;;;;;;;;;;;10.40;99.90;;;;;;5031303;28;19913;-72
2021/04/11 05:09:20;;;;;;;;;;;10.40;99.90;;;;;;5031208;28;20012;-73
2021/04/11 05:11:55;;;;;;;;;;;10.40;99.90;;;;;;5031110;28;19917;-73
2021/04/11 05:14:25;;;;;;;;;;;10.50;99.90;;;;;;5031099;28;19919;-73
2021/04/11 05:17:00;;;;;;;;;;;10.60;99.90;;;;;;5030918;28;19917;-73
2021/04/11 05:19:39;;;;;;;;;;;10.60;99.90;;;;;;5030747;28;19976;-74
2021/04/11 05:22:27;;;;;;;;;;;10.60;99.90;;;;;;5033494;28;19919;-73
2021/04/11 05:25:03;;;;;;;;;;;10.70;99.90;;;;;;5034792;28;19913;-73
2021/04/11 05:27:32;;;;;;;;;;;10.70;99.90;;;;;;5033642;28;19967;-74
2021/04/11 05:30:05;;;;;;;;;;;10.70;99.90;;;;;;5035697;28;19913;-73
2021/04/11 05:32:31;;;;;;;;;;;10.80;99.90;;;;;;5034677;28;19913;-74
2021/04/11 05:34:57;;;;;;;;;;;10.80;99.90;;;;;;5035677;28;19959;-74
2021/04/11 05:38:05;;;;;;;;;;;10.80;99.90;;;;;;5034090;28;20320;-74
2021/04/11 05:40:40;;;;;;;;;;;10.90;99.90;;;;;;5035545;28;19967;-75
2021/04/11 05:43:12;;;;;;;;;;;10.90;99.90;;;;;;5049241;28;20015;-74
2021/04/11 05:45:43;;;;;;;;;;;10.90;99.90;;;;;;5060556;28;19952;-78
2021/04/11 05:48:24;;;;;;;;;;;10.90;99.90;;;;;;5038106;28;19913;-75
2021/04/11 05:51:12;;;;;;;;;;;10.90;99.90;;;;;;5053866;28;20012;-75
2021/04/11 05:53:45;;;;;;;;;;;10.90;99.90;;;;;;5071143;28;19913;-75
2021/04/11 05:56:32;;;;;;;;;;;11.00;99.90;;;;;;5073614;28;19912;-74
2021/04/11 05:59:03;;;;;;;;;;;11.10;99.90;;;;;;5056305;28;19935;-73
2021/04/11 06:01:55;;;;;;;;;;;11.20;99.90;;;;;;5073787;28;19919;-75
2021/04/11 06:04:34;;;;;;;;;;;11.30;99.90;;;;;;5054648;28;20357;-78
2021/04/11 06:07:11;;;;;;;;;;;11.40;99.90;;;;;;5052455;28;19924;-78
2021/04/11 06:10:10;;;;;;;;;;;11.70;99.90;;;;;;5047404;28;19931;-78
2021/04/11 06:12:47;;;;;;;;;;;11.80;99.90;;;;;;5017470;28;19917;-76
2021/04/11 06:15:16;;;;;;;;;;;12.00;99.90;;;;;;5059220;28;19913;-75
2021/04/11 06:17:47;;;;;;;;;;;12.10;99.90;;;;;;5044102;28;20402;-74
2021/04/11 06:20:14;;;;;;;;;;;12.20;99.90;;;;;;5063361;28;19916;-74
2021/04/11 06:22:50;;;;;;;;;;;12.30;99.90;;;;;;5045294;28;19969;-74
2021/04/11 06:25:42;;;;;;;;;;;12.30;99.90;;;;;;5074833;28;20062;-74
2021/04/11 06:28:38;;;;;;;;;;;12.40;99.90;;;;;;5068486;28;19967;-75
2021/04/11 06:31:11;;;;;;;;;;;12.60;99.90;;;;;;5054523;28;19916;-75
2021/04/11 06:33:39;;;;;;;;;;;12.60;99.90;;;;;;5068248;28;19971;-75
2021/04/11 06:36:19;;;;;;;;;;;12.50;99.90;;;;;;5054528;28;19913;-74
2021/04/11 06:39:00;;;;;;;;;;;12.50;99.90;;;;;;5068305;28;19955;-74
2021/04/11 06:41:34;;;;;;;;;;;12.60;99.90;;;;;;5068323;28;19960;-74
2021/04/11 06:44:14;;;;;;;;;;;12.60;99.90;;;;;;5082613;28;19912;-74
2021/04/11 06:46:58;;;;;;;;;;;12.80;99.90;;;;;;5072610;28;19958;-75
2021/04/11 06:49:57;;;;;;;;;;;12.90;99.90;;;;;;5072528;28;19916;-74
2021/04/11 06:52:44;;;;;;;;;;;13.00;99.90;;;;;;5055776;28;19993;-74
2021/04/11 06:55:16;;;;;;;;;;;13.10;99.90;;;;;;5073828;28;19912;-74
2021/04/11 06:57:44;;;;;;;;;;;13.00;99.90;;;;;;5079047;28;19913;-74
2021/04/11 07:00:26;;;;;;;;;;;12.90;99.90;;;;;;5073506;28;19970;-74
2021/04/11 07:03:25;;;;;;;;;;;13.10;99.90;;;;;;5072394;28;20327;-74
2021/04/11 07:05:57;;;;;;;;;;;13.30;99.90;;;;;;5073856;28;19923;-74
2021/04/11 07:09:10;;;;;;;;;;;13.20;99.90;;;;;;5073581;28;19916;-75
2021/04/11 07:12:13;;;;;;;;;;;13.30;99.90;;;;;;5011358;28;19924;-71
2021/04/11 07:14:57;;;;;;;;;;;13.40;99.90;;;;;;5054612;28;19917;-76
2021/04/11 07:17:46;;;;;;;;;;;13.50;99.90;;;;;;5053149;28;20454;-74
2021/04/11 07:20:42;;;;;;;;;;;13.70;99.90;;;;;;5053268;28;20289;-74
2021/04/11 07:23:26;;;;;;;;;;;13.60;99.90;;;;;;5053944;28;19917;-74
2021/04/11 07:26:15;;;;;;;;;;;13.70;99.90;;;;;;5053474;28;19912;-74
2021/04/11 07:28:55;;;;;;;;;;;13.80;99.90;;;;;;5052772;28;19923;-71
2021/04/11 07:31:50;;;;;;;;;;;13.80;99.90;;;;;;5052216;28;19951;-73
2021/04/11 07:34:34;;;;;;;;;;;13.80;99.90;;;;;;5053259;28;19919;-71
2021/04/11 07:37:15;;;;;;;;;;;13.90;99.90;;;;;;5053245;28;20016;-73
2021/04/11 07:40:03;;;;;;;;;;;14.20;99.90;;;;;;5053018;28;19971;-74
2021/04/11 07:43:10;;;;;;;;;;;14.30;99.90;;;;;;5053973;28;19916;-74
2021/04/11 07:45:49;;;;;;;;;;;14.30;99.90;;;;;;5072674;28;20304;-72
2021/04/11 07:48:34;;;;;;;;;;;14.40;99.90;;;;;;5072815;28;20390;-71
2021/04/11 07:51:24;;;;;;;;;;;14.30;99.90;;;;;;5068535;28;19959;-73
2021/04/11 07:54:05;;;;;;;;;;;14.40;99.90;;;;;;5071915;28;19916;-74
2021/04/11 07:56:42;;;;;;;;;;;14.50;99.90;;;;;;5072891;28;19919;-72
2021/04/11 07:59:45;;;;;;;;;;;14.40;99.90;;;;;;5072614;28;20003;-73
2021/04/11 08:02:18;;;;;;;;;;;14.20;99.90;;;;;;5029446;28;19913;-73
2021/04/11 08:05:05;;;;;;;;;;;14.50;99.90;;;;;;5071570;28;19913;-66
2021/04/11 08:07:53;;;;;;;;;;;14.60;99.90;;;;;;5072930;28;20422;-65
2021/04/11 08:12:13;;;;;;;;;;;14.70;99.90;;;;;;5029276;27;19925;-68
2021/04/11 08:15:01;;;;;;;;;;;14.80;99.90;;;;;;5070043;28;19964;-68
2021/04/11 08:17:47;;;;;;;;;;;14.90;99.90;;;;;;5070225;28;19920;-67
2021/04/11 08:20:22;;;;;;;;;;;14.70;99.90;;;;;;5069071;28;20389;-68
2021/04/11 08:22:54;;;;;;;;;;;14.70;99.90;;;;;;5070133;28;19924;-68
2021/04/11 08:25:50;;;;;;;;;;;14.60;99.90;;;;;;5068999;28;19916;-68
2021/04/11 08:28:43;;;;;;;;;;;14.60;99.90;;;;;;5070007;28;19916;-67
2021/04/11 08:31:30;;;;;;;;;;;14.60;99.90;;;;;;5069775;28;20362;-65
2021/04/11 08:34:46;;;;;;;;;;;14.80;99.90;;;;;;5069946;28;19917;-67
2021/04/11 08:38:02;;;;;;;;;;;14.90;99.90;;;;;;5069856;28;19917;-67
2021/04/11 08:40:34;;;;;;;;;;;15.00;99.90;;;;;;5007417;28;20012;-68
2021/04/11 08:43:20;;;;;;;;;;;15.30;99.90;;;;;;5007561;28;20362;-68
2021/04/11 08:46:01;;;;;;;;;;;15.50;99.90;;;;;;5053516;28;19967;-68
2021/04/11 08:49:02;;;;;;;;;;;15.70;99.90;;;;;;5069503;28;19947;-68
2021/04/11 08:51:37;;;;;;;;;;;15.90;99.70;;;;;;5069485;28;19924;-68
2021/04/11 08:54:02;;;;;;;;;;;16.10;99.10;;;;;;5068395;28;19941;-68
2021/04/11 08:56:45;;;;;;;;;;;16.20;99.00;;;;;;5069044;28;19927;-68
2021/04/11 08:59:19;;;;;;;;;;;16.20;99.30;;;;;;5068203;28;19917;-68
2021/04/11 09:01:47;;;;;;;;;;;16.40;98.90;;;;;;5069300;28;19916;-69
2021/04/11 09:04:43;;;;;;;;;;;16.10;99.60;;;;;;5069253;28;19921;-67
2021/04/11 09:07:46;;;;;;;;;;;16.10;99.50;;;;;;5052613;28;19924;-68
2021/04/11 09:10:44;;;;;;;;;;;16.20;99.70;;;;;;5068493;28;19920;-68
2021/04/11 09:13:41;;;;;;;;;;;16.60;98.20;;;;;;5050455;28;20324;-69
2021/04/11 09:16:17;;;;;;;;;;;16.20;98.60;;;;;;5049053;28;19917;-68
2021/04/11 09:19:18;;;;;;;;;;;16.10;99.80;;;;;;5049054;28;19920;-68
2021/04/11 09:22:05;;;;;;;;;;;16.40;98.70;;;;;;5050412;28;19921;-68
2021/04/11 09:24:52;;;;;;;;;;;16.50;98.10;;;;;;5035712;28;20004;-69
2021/04/11 09:27:28;;;;;;;;;;;16.50;98.10;;;;;;5041668;28;19913;-69
2021/04/11 09:30:26;;;;;;;;;;;16.60;97.90;;;;;;5034226;28;19918;-69
2021/04/11 09:33:17;;;;;;;;;;;16.60;97.60;;;;;;5035645;28;19917;-68
2021/04/11 09:35:46;;;;;;;;;;;16.70;98.20;;;;;;5035421;28;19924;-68
2021/04/11 09:38:36;;;;;;;;;;;16.70;98.10;;;;;;5034312;28;19913;-68
2021/04/11 09:41:14;;;;;;;;;;;16.70;97.80;;;;;;5034458;28;20010;-67
2021/04/11 09:44:14;;;;;;;;;;;16.50;99.10;;;;;;5040785;28;19928;-68
2021/04/11 09:46:54;;;;;;;;;;;16.70;97.50;;;;;;5034935;28;20348;-69
2021/04/11 09:49:57;;;;;;;;;;;16.50;98.00;;;;;;5049100;28;20004;-68
2021/04/11 09:52:42;;;;;;;;;;;16.40;98.70;;;;;;5048480;28;19921;-69
2021/04/11 09:55:38;;;;;;;;;;;16.40;98.20;;;;;;5033627;28;19917;-68
2021/04/11 09:58:10;;;;;;;;;;;16.30;98.40;;;;;;5035172;28;19917;-68
2021/04/11 10:00:42;;;;;;;;;;;16.30;98.50;;;;;;5040021;28;19923;-69
2021/04/11 10:03:41;;;;;;;;;;;16.40;98.50;;;;;;5054948;28;20364;-68
2021/04/11 10:06:33;;;;;;;;;;;16.30;98.40;;;;;;5054250;28;20262;-68
2021/04/11 10:09:31;;;;;;;;;;;16.30;98.40;;;;;;5054946;28;19917;-69
2021/04/11 10:12:23;;;;;;;;;;;16.20;98.70;;;;;;5054838;28;19963;-65
2021/04/11 10:15:09;;;;;;;;;;;16.00;99.30;;;;;;5034304;28;20414;-68
2021/04/11 10:18:16;;;;;;;;;;;16.00;99.00;;;;;;5033679;28;19917;-69
2021/04/11 10:20:54;;;;;;;;;;;15.90;99.20;;;;;;5033462;28;19967;-69
2021/04/11 10:23:50;;;;;;;;;;;16.00;99.30;;;;;;5034714;28;19940;-68
2021/04/11 10:27:01;;;;;;;;;;;15.90;99.20;;;;;;5058942;28;19929;-67
2021/04/11 10:29:28;;;;;;;;;;;15.90;99.30;;;;;;5060858;28;19975;-68
2021/04/11 10:32:12;;;;;;;;;;;15.90;99.40;;;;;;5066056;28;19920;-70
2021/04/11 10:34:42;;;;;;;;;;;16.00;99.10;;;;;;5067041;28;19920;-70
2021/04/11 10:37:33;;;;;;;;;;;16.00;99.40;;;;;;5060592;28;19916;-70
2021/04/11 10:40:50;;;;;;;;;;;15.90;99.30;;;;;;5063297;28;19920;-68
2021/04/11 10:43:45;;;;;;;;;;;15.90;99.60;;;;;;5058224;28;19917;-68
2021/04/11 10:46:48;;;;;;;;;;;16.00;99.10;;;;;;5053785;28;19928;-66
2021/04/11 10:49:49;;;;;;;;;;;16.10;98.90;;;;;;5053987;28;19927;-69
2021/04/11 10:52:19;;;;;;;;;;;15.90;99.10;;;;;;5054254;28;19924;-71
2021/04/11 10:54:45;;;;;;;;;;;15.70;99.80;;;;;;5058397;28;20286;-71
2021/04/11 10:57:53;;;;;;;;;;;15.70;99.80;;;;;;5057295;28;19923;-69
2021/04/11 11:00:51;;;;;;;;;;;15.70;99.60;;;;;;5040128;28;19921;-71
2021/04/11 11:04:10;;;;;;;;;;;15.60;99.60;;;;;;5058825;28;20058;-71
2021/04/11 11:06:54;;;;;;;;;;;15.60;99.90;;;;;;5054857;28;20175;-69
2021/04/11 11:09:34;;;;;;;;;;;15.60;99.80;;;;;;5056262;28;19917;-69
2021/04/11 11:12:17;;;;;;;;;;;15.70;99.90;;;;;;5052345;28;19921;-68
2021/04/11 11:15:13;;;;;;;;;;;15.70;99.30;;;;;;5054444;28;19920;-70
2021/04/11 11:17:41;;;;;;;;;;;15.70;99.20;;;;;;5041966;28;19921;-69
2021/04/11 11:20:16;;;;;;;;;;;15.70;99.00;;;;;;5073281;28;20007;-71
2021/04/11 11:23:14;;;;;;;;;;;15.70;99.10;;;;;;5065272;28;19921;-70
2021/04/11 11:26:04;;;;;;;;;;;15.80;98.90;;;;;;5051769;28;20385;-71
2021/04/11 11:29:07;;;;;;;;;;;15.90;98.40;;;;;;5052955;28;19917;-70
2021/04/11 11:31:59;;;;;;;;;;;16.00;98.50;;;;;;5061365;28;19920;-71
2021/04/11 11:34:35;;;;;;;;;;;16.10;98.30;;;;;;5056963;28;19916;-70
2021/04/11 11:37:25;;;;;;;;;;;16.20;98.10;;;;;;5053093;28;19923;-70
2021/04/11 11:40:10;;;;;;;;;;;16.20;97.40;;;;;;5052778;28;20384;-71
2021/04/11 11:42:59;;;;;;;;;;;16.30;97.70;;;;;;5053025;28;20006;-69
2021/04/11 11:45:43;;;;;;;;;;;16.50;97.20;;;;;;5052941;28;19917;-71
2021/04/11 11:48:30;;;;;;;;;;;16.60;97.40;;;;;;5052844;28;20281;-70
2021/04/11 11:51:30;;;;;;;;;;;16.40;97.10;;;;;;5052918;28;20341;-70
2021/04/11 11:54:11;;;;;;;;;;;16.70;97.30;;;;;;5050932;28;19923;-70
2021/04/11 11:56:43;;;;;;;;;;;17.40;95.90;;;;;;5052614;28;19963;-70
2021/04/11 11:59:16;;;;;;;;;;;17.60;95.40;;;;;;5052571;28;19920;-69
2021/04/11 12:02:09;;;;;;;;;;;17.40;95.30;;;;;;5051318;28;19923;-70
2021/04/11 12:04:55;;;;;;;;;;;17.10;95.50;;;;;;5051004;28;19913;-68
2021/04/11 12:07:41;;;;;;;;;;;17.10;95.80;;;;;;5051601;28;19917;-70
2021/04/11 12:10:31;;;;;;;;;;;17.00;95.80;;;;;;5049524;28;19927;-69
2021/04/11 12:13:08;;;;;;;;;;;16.80;96.90;;;;;;5037678;28;19924;-70
2021/04/11 12:16:00;;;;;;;;;;;16.80;96.50;;;;;;5052220;28;19917;-69
2021/04/11 12:18:30;;;;;;;;;;;16.80;96.70;;;;;;5052493;28;19952;-69
2021/04/11 12:21:19;;;;;;;;;;;16.80;96.80;;;;;;5050992;28;20292;-69
2021/04/11 12:24:03;;;;;;;;;;;16.50;97.60;;;;;;5050868;28;19917;-68
2021/04/11 12:26:32;;;;;;;;;;;16.40;97.60;;;;;;5051450;28;19945;-69
2021/04/11 12:29:08;;;;;;;;;;;16.30;98.20;;;;;;5052212;28;19998;-68
2021/04/11 12:31:40;;;;;;;;;;;16.30;98.20;;;;;;5035102;28;19917;-67
2021/04/11 12:34:37;;;;;;;;;;;16.50;98.10;;;;;;5052479;28;19916;-68
2021/04/11 12:37:28;;;;;;;;;;;16.60;97.80;;;;;;5050742;28;20293;-68
2021/04/11 12:40:02;;;;;;;;;;;16.50;98.20;;;;;;5052258;28;19920;-69
2021/04/11 12:42:38;;;;;;;;;;;16.40;98.00;;;;;;5050714;28;20419;-68
2021/04/11 12:45:19;;;;;;;;;;;16.50;98.10;;;;;;5052002;28;19921;-69
2021/04/11 12:47:53;;;;;;;;;;;16.50;98.10;;;;;;5052097;28;19917;-68
2021/04/11 12:50:32;;;;;;;;;;;16.80;97.60;;;;;;5050778;28;19917;-68
2021/04/11 12:53:04;;;;;;;;;;;16.70;97.80;;;;;;5050655;28;20361;-67
2021/04/11 12:55:54;;;;;;;;;;;16.60;97.60;;;;;;5051249;28;19923;-69
2021/04/11 12:58:43;;;;;;;;;;;16.50;98.00;;;;;;5071069;28;20491;-69
2021/04/11 13:01:16;;;;;;;;;;;16.70;97.40;;;;;;5061465;28;19924;-69
2021/04/11 13:03:45;;;;;;;;;;;17.00;98.10;;;;;;5054706;28;19917;-70
2021/04/11 13:06:54;;;;;;;;;;;17.20;98.50;;;;;;5054855;28;19912;-68
2021/04/11 13:09:39;;;;;;;;;;;17.00;98.10;;;;;;5070692;28;19921;-69
2021/04/11 13:12:07;;;;;;;;;;;17.00;98.50;;;;;;5055912;28;19928;-68
2021/04/11 13:14:38;;;;;;;;;;;17.40;98.10;;;;;;5037461;28;19925;-68
2021/04/11 13:19:30;;;;;;;2.70;1.25;;;17.60;97.10;;;;;;5109916;27;20416;-67
2021/04/11 13:22:08;;;;;;;4.18;1.40;;;17.30;98.00;;;;;;5088721;28;20093;-69
2021/04/11 13:25:10;;;;;;;5.22;1.33;;;17.20;98.10;;;;;;5088675;28;20037;-70
2021/04/11 13:27:40;;;;;;;4.10;1.40;;;17.00;98.70;;;;;;5088889;28;20033;-68
2021/04/11 13:30:14;;;;;;;3.08;1.42;;;17.00;98.90;;;;;;5088296;28;20056;-68
2021/04/11 13:33:09;;;;;;;1.67;0.82;;;16.60;99.60;;;;;;5089511;28;20107;-69
2021/04/11 13:36:07;;;;;;;3.35;1.60;;;16.50;99.80;;;;;;5088853;28;20036;-69
2021/04/11 13:38:41;;;;;;;4.40;1.23;;;16.30;99.90;;;;;;5084673;28;20040;-69
2021/04/11 13:41:14;;;;;;;4.70;1.33;;;16.20;99.90;;;;;;5088440;28;20037;-69
2021/04/11 13:44:08;;;;;;;2.65;1.20;;;15.90;99.90;;;;;;5088393;28;20055;-69
2021/04/11 13:47:12;;;;;;;4.25;1.10;;;15.80;99.90;;;;;;5089676;28;20032;-68
2021/04/11 13:50:19;;;;;;;3.35;1.23;;;15.70;99.90;;;;;;5088355;28;20538;-70
2021/04/11 13:53:34;;;;;;;2.42;0.85;;;15.40;99.90;;;;;;5065618;28;20397;-72
2021/04/11 13:56:15;;;;;;;3.20;1.10;;;15.40;99.90;;;;;;5068016;28;20074;-67
2021/04/11 13:58:50;;;;;;;3.30;1.10;;;15.20;99.90;;;;;;5067742;28;20039;-69
2021/04/11 14:01:30;;;;;;;1.23;0.63;;;15.00;99.90;;;;;;5067605;28;20041;-70
2021/04/11 14:04:12;;;;;;;2.10;0.63;;;14.70;99.90;;;;;;5068898;28;20061;-67
2021/04/11 14:07:09;;;;;;;1.90;0.80;;;14.60;99.90;;;;;;5067887;28;20060;-68
2021/04/11 14:09:59;;;;;;;2.17;0.80;;;14.50;99.90;;;;;;5060050;28;20099;-68
2021/04/11 14:13:05;;;;;;;1.77;0.70;;;14.40;99.90;;;;;;5048286;28;20029;-68
2021/04/11 14:15:43;;;;;;;1.42;0.70;;;14.40;99.90;;;;;;5083224;28;20033;-68
2021/04/11 14:18:18;;;;;;;2.58;0.93;;;14.20;99.90;;;;;;5082755;28;20041;-68
2021/04/11 14:20:59;;;;;;;2.40;0.85;;;14.10;99.90;;;;;;5071967;28;20541;-69
2021/04/11 14:23:38;;;;;;;2.22;1.20;;;14.10;99.90;;;;;;5047497;28;20041;-69
2021/04/11 14:26:20;;;;;;;3.45;1.08;;;14.10;99.90;;;;;;5048463;28;20040;-69
2021/04/11 14:28:57;;;;;;;3.63;0.90;;;14.00;99.90;;;;;;5044114;28;20044;-68
2021/04/11 14:32:03;;;;;;;4.60;1.15;;;14.00;99.90;;;;;;5035303;28;20033;-69
2021/04/11 14:34:47;;;;;;;1.58;0.85;;;13.80;99.90;;;;;;5033987;28;20037;-68
2021/04/11 14:37:46;;;;;;;2.53;1.20;;;13.70;99.90;;;;;;5034506;28;20564;-69
2021/04/11 14:40:19;;;;;;;4.32;1.00;;;13.60;99.90;;;;;;5034913;28;20174;-69
2021/04/11 14:43:27;;;;;;;2.33;1.33;;;13.40;99.90;;;;;;5037153;28;20033;-69
2021/04/11 14:46:00;;;;;;;3.63;1.25;;;13.20;99.90;;;;;;5054496;28;20036;-71
2021/04/11 14:48:30;;;;;;;3.85;1.42;;;13.20;99.90;;;;;;5069974;28;20036;-68
2021/04/11 14:51:44;;;;;;;2.17;1.10;;;13.10;99.90;;;;;;5069851;28;20033;-69
2021/04/11 14:54:42;;;;;;;3.50;1.92;;;13.00;99.90;;;;;;5054391;28;20028;-68
2021/04/11 14:57:26;;;;;;;5.93;3.63;;;12.90;99.90;;;;;;5069052;28;20325;-68
2021/04/11 15:00:12;;;;;;;3.47;2.20;;;12.60;99.90;;;;;;5053866;28;20508;-67
2021/04/11 15:03:00;;;;;;;3.17;1.98;;;12.10;99.90;;;;;;5054381;28;20040;-68
2021/04/11 15:05:55;;;;;;;2.67;1.40;;;11.80;99.90;;;;;;5068128;28;20052;-68
2021/04/11 15:09:04;;;;;;;6.15;2.17;;;11.40;99.90;;;;;;5054480;28;20071;-68
2021/04/11 15:11:43;;;;;;;5.00;1.65;;;11.20;99.90;;;;;;5004052;28;20030;-67
2021/04/11 15:14:29;;;;;;;2.63;1.63;;;11.00;99.90;;;;;;5028838;28;20403;-68
2021/04/11 15:17:24;;;;;;;3.83;1.85;;;10.90;99.90;;;;;;5048125;28;20171;-67
2021/04/11 15:20:11;;;;;;;5.75;2.63;;;10.90;99.90;;;;;;5048505;28;20045;-69
2021/04/11 15:23:30;;;;;;;2.97;1.77;;;10.80;99.90;;;;;;5048543;28;20360;-68